Terminal Aerodrome Forecast
Issued by NWS

Home | Current Version | Previous Version | Text Only | Print | Product List | Glossary Off
Versions: 1 2 3 4 5 6 7 8 9 10 11 12 13 14 15 16 17 18 19

556
FTUS43 KMPX 191746
TAFRWF
TAF
KRWF 191746Z 1918/2018 02015G24KT 2SM -SN BR BKN018 OVC025
     FM192200 03013G20KT P6SM VCSH OVC015
     FM200400 03010KT P6SM OVC015 PROB30 2004/2006 4SM -SN
     FM200800 02008KT 2SM -SN OVC015
     FM201000 35009KT 1SM -SN OVC015
     FM201200 35008KT 1 1/2SM -SN BR OVC015=

USA.gov is the U.S. government's official web portal to all federal, state and local government web resources and services.